Ana Sayfa
METAR-TAF:

METAR-TAF

Havaalanları :

Dubai Uluslararası Havalimanı

Dubai, Birleşik Arap Emirlikleri

Enlem: 25-15-10N, Boylam: 055-21-52E, yükseklik: 8 m

Güncel hava durumu gözlemi

Rapor saat 22:00 UTC de 41 dakika önce yapıldı.
Rüzgar kuzeydoğudan 4 kt, kuzey ve doğu arasında değişken
Sıcaklık 31°C
Nem 49%
Basınç 1007 hPa
Görüş mesafesi 10 km veya daha fazla
1500 m altında bulut yok ve kümülonimbus yok

METAR: OMDB 212200Z 05004KT 010V090 CAVOK 31/19 Q1007 NOSIG

Saat: 02:41 (22:41 UTC)

Tahmin

Rapor saat 16:56 UTC de 5 saat ve 45 dakika önce yapıldı.
Ayın 21'si saat 18 UTC'den ayın 23'si saat 00 UTC'ye kadar geçerli Tahmin
Rüzgar doğudan 5 kt
Görüş mesafesi: 8000 m
Dönüşüyor
ayın 22'si saat 07 UTC'den ayın 22'si saat 09 UTC'ye kadar
Rüzgar kuzey/kuzeybatıdan 12 kt
Dönüşüyor
ayın 22'si saat 16 UTC'den ayın 22'si saat 18 UTC'ye kadar
Rüzgar doğu/kuzeydoğudan 5 kt

TAF: OMDB 211656Z 2118/2300 09005KT 8000 NSC BECMG 2207/2209 34012KT BECMG 2216/2218 07005KT

4.000'den fazla havaalanı için hava durumu gözlemleri ve tahminleri (METAR ve TAF raporları).

Kullanılabilir istasyonlar harita üzerinde sarı ve kırmızı noktalarla gösterilir.

İstasyonun adını görmek için fareyi noktanın üzerinde gezdirin.

Sonrasında hava gözlem ve tahminlerini görmek için tıklayın.

Haritayı değiştirmek için: yaklaştırmak için siyah artı işaretli yeşil düğmeye ve uzaklaştırmak için de eksi işaretli düğmeye hızla tıklayın; bitişik haritalar için yeşil okları kullanın.


METAR-TAF: